createdAt,value
2022-10-11T00:00:41.590Z,16.53
2022-10-11T00:03:09.760Z,12.40
2022-10-11T00:05:38.028Z,20.80
2022-10-11T00:08:06.719Z,21.43
2022-10-11T00:10:35.294Z,19.40
2022-10-11T00:13:04.032Z,17.97
2022-10-11T00:15:33.823Z,10.20
2022-10-11T00:18:05.253Z,12.93
2022-10-11T00:20:33.580Z,16.53
2022-10-11T00:23:01.580Z,9.00
2022-10-11T00:25:29.626Z,18.27
2022-10-11T00:27:57.585Z,19.30
2022-10-11T00:30:25.632Z,11.97
2022-10-11T00:32:55.010Z,14.30
2022-10-11T00:35:23.107Z,16.63
2022-10-11T00:37:51.129Z,10.27
2022-10-11T00:40:22.265Z,12.43
2022-10-11T00:42:50.325Z,16.60
2022-10-11T00:45:55.715Z,11.43
2022-10-11T00:48:30.032Z,17.23
2022-10-11T00:51:00.181Z,14.90
2022-10-11T00:53:31.067Z,16.83
2022-10-11T00:56:05.180Z,12.33
2022-10-11T00:58:35.002Z,8.67
2022-10-11T01:01:03.548Z,14.40
2022-10-11T01:03:36.276Z,13.70
2022-10-11T01:06:05.058Z,15.30
2022-10-11T01:08:34.252Z,11.60
2022-10-11T01:11:02.860Z,13.03
2022-10-11T01:13:42.174Z,13.00
2022-10-11T01:16:16.299Z,12.03
2022-10-11T01:18:50.668Z,11.33
2022-10-11T01:21:30.886Z,16.07
2022-10-11T01:24:25.717Z,12.33
2022-10-11T01:27:29.802Z,14.50
2022-10-11T01:30:06.263Z,17.70
2022-10-11T01:32:41.838Z,14.53
2022-10-11T01:35:17.364Z,15.60
2022-10-11T01:37:49.697Z,10.37
2022-10-11T01:40:24.502Z,10.50
2022-10-11T01:42:55.473Z,11.23
2022-10-11T01:45:24.245Z,13.47
2022-10-11T01:48:04.830Z,17.67
2022-10-11T01:50:40.232Z,14.47
2022-10-11T01:53:29.621Z,11.80
2022-10-11T01:56:06.905Z,16.27
2022-10-11T01:58:50.541Z,17.60
2022-10-11T02:01:28.388Z,14.20
2022-10-11T02:04:05.174Z,13.40
2022-10-11T02:06:40.968Z,11.83
2022-10-11T02:09:16.672Z,22.90
2022-10-11T02:11:44.832Z,14.53
2022-10-11T02:14:16.438Z,7.03
2022-10-11T02:16:48.839Z,9.27
2022-10-11T02:19:21.717Z,18.10
2022-10-11T02:21:55.634Z,15.40
2022-10-11T02:24:28.727Z,8.97
2022-10-11T02:26:58.720Z,12.30
2022-10-11T02:29:30.462Z,14.90
2022-10-11T02:32:00.495Z,14.87
2022-10-11T02:34:33.394Z,13.00
2022-10-11T02:37:07.180Z,12.07
2022-10-11T02:39:42.277Z,16.23
2022-10-11T02:42:14.983Z,11.60
2022-10-11T02:44:47.540Z,12.77
2022-10-11T02:47:16.090Z,6.30
2022-10-11T02:49:45.424Z,9.20
2022-10-11T02:52:15.056Z,9.77
2022-10-11T02:54:43.097Z,13.20
2022-10-11T02:57:11.143Z,10.40
2022-10-11T02:59:39.155Z,11.23
2022-10-11T03:02:07.234Z,11.53
2022-10-11T03:04:35.314Z,9.40
2022-10-11T03:07:05.018Z,13.00
2022-10-11T03:09:33.012Z,13.83
2022-10-11T03:12:00.999Z,11.03
2022-10-11T03:14:29.201Z,9.27
2022-10-11T03:17:12.063Z,13.53
2022-10-11T03:19:45.046Z,12.53
2022-10-11T03:22:14.373Z,14.40
2022-10-11T03:24:42.357Z,16.20
2022-10-11T03:27:10.382Z,9.20
2022-10-11T03:29:38.409Z,12.23
2022-10-11T03:32:06.720Z,8.20
2022-10-11T03:34:34.735Z,11.77
2022-10-11T03:37:02.722Z,16.93
2022-10-11T03:39:32.092Z,8.30
2022-10-11T03:42:00.003Z,14.00
2022-10-11T03:44:28.130Z,14.00
2022-10-11T03:46:56.133Z,12.93
2022-10-11T03:49:24.716Z,6.53
2022-10-11T03:51:52.735Z,9.23
2022-10-11T03:54:20.935Z,13.07
2022-10-11T03:56:50.259Z,11.33
2022-10-11T03:59:18.256Z,13.90
2022-10-11T04:01:46.281Z,13.27
2022-10-11T04:04:14.243Z,14.23
2022-10-11T04:06:42.208Z,9.57
2022-10-11T04:09:10.400Z,16.00
2022-10-11T04:11:38.379Z,8.53
2022-10-11T04:14:07.726Z,8.97
2022-10-11T04:16:38.569Z,23.80
2022-10-11T04:19:06.679Z,16.33
2022-10-11T04:21:34.677Z,12.13
2022-10-11T04:24:02.645Z,15.93
2022-10-11T04:26:31.639Z,9.17
2022-10-11T04:28:59.739Z,10.80
2022-10-11T04:31:29.120Z,16.00
2022-10-11T04:33:57.159Z,8.97
2022-10-11T04:36:25.190Z,13.13
2022-10-11T04:38:56.822Z,13.00
2022-10-11T04:41:24.773Z,16.10
2022-10-11T04:43:52.710Z,17.07
2022-10-11T04:46:20.710Z,19.53
2022-10-11T04:48:50.136Z,18.23
2022-10-11T04:51:18.095Z,25.03
2022-10-11T04:53:46.033Z,29.53
2022-10-11T04:56:15.178Z,27.13
2022-10-11T04:58:43.215Z,27.53
2022-10-11T05:01:12.110Z,40.03
2022-10-11T05:03:40.094Z,29.80
2022-10-11T05:06:09.918Z,22.80
2022-10-11T05:08:39.044Z,22.57
2022-10-11T05:11:09.450Z,30.23
2022-10-11T05:13:37.731Z,31.10
2022-10-11T05:16:10.668Z,22.80
2022-10-11T05:18:39.865Z,24.40
2022-10-11T05:21:15.143Z,29.97
2022-10-11T05:23:43.159Z,24.03
2022-10-11T05:26:11.504Z,21.80
2022-10-11T05:28:39.602Z,25.13
2022-10-11T05:31:07.649Z,22.23
2022-10-11T05:33:35.851Z,25.67
2022-10-11T05:36:04.243Z,19.63
2022-10-11T05:38:33.897Z,26.43
2022-10-11T05:41:02.786Z,21.90
2022-10-11T05:43:31.536Z,25.13
2022-10-11T05:45:59.778Z,31.30
2022-10-11T05:48:28.571Z,34.77
2022-10-11T05:51:02.062Z,32.80
2022-10-11T05:53:30.857Z,39.77
2022-10-11T05:56:00.816Z,32.97
2022-10-11T05:58:29.308Z,32.30
2022-10-11T06:00:57.695Z,32.83
2022-10-11T06:03:25.961Z,34.33
2022-10-11T06:05:56.926Z,34.63
2022-10-11T06:08:25.493Z,32.23
2022-10-11T06:10:53.544Z,47.70
2022-10-11T06:13:22.998Z,37.40
2022-10-11T06:15:51.063Z,34.60
2022-10-11T06:18:19.112Z,41.90
2022-10-11T06:20:47.098Z,43.93
2022-10-11T06:23:15.122Z,42.00
2022-10-11T06:25:43.338Z,48.83
2022-10-11T06:28:11.350Z,56.00
2022-10-11T06:30:41.207Z,53.03
2022-10-11T06:33:09.195Z,62.43
2022-10-11T06:35:37.229Z,72.17
2022-10-11T06:38:05.273Z,71.33
2022-10-11T06:40:33.467Z,78.13
2022-10-11T06:43:01.539Z,80.27
2022-10-11T06:45:29.627Z,80.30
2022-10-11T06:48:01.859Z,66.03
2022-10-11T06:50:54.488Z,73.40
2022-10-11T06:53:19.177Z,67.60
2022-10-11T06:55:47.242Z,64.87
2022-10-11T06:58:15.355Z,69.77
2022-10-11T07:00:43.373Z,71.40
2022-10-11T07:03:12.865Z,57.00
2022-10-11T07:05:40.828Z,59.80
2022-10-11T07:08:08.861Z,71.13
2022-10-11T07:10:37.542Z,60.73
2022-10-11T07:13:05.512Z,54.97
2022-10-11T07:15:38.096Z,53.73
2022-10-11T07:18:07.141Z,56.37
2022-10-11T07:20:36.863Z,52.93
2022-10-11T07:23:04.936Z,49.87
2022-10-11T07:25:32.940Z,53.90
2022-10-11T07:28:00.990Z,55.53
2022-10-11T07:30:29.054Z,57.23
2022-10-11T07:32:57.530Z,58.53
2022-10-11T07:35:25.591Z,44.87
2022-10-11T07:37:55.051Z,49.13
2022-10-11T07:40:23.044Z,53.27
2022-10-11T07:42:51.317Z,57.97
2022-10-11T07:45:19.617Z,61.10
2022-10-11T07:47:47.613Z,69.30
2022-10-11T07:50:15.669Z,66.17
2022-10-11T07:52:43.686Z,65.37
2022-10-11T07:55:13.040Z,67.53
2022-10-11T07:57:41.111Z,67.53
2022-10-11T08:00:10.229Z,63.37
2022-10-11T08:02:41.317Z,70.70
2022-10-11T08:05:09.684Z,59.23
2022-10-11T08:07:38.331Z,65.50
2022-10-11T08:10:07.746Z,61.13
2022-10-11T08:12:37.175Z,71.10
2022-10-11T08:15:05.749Z,70.00
2022-10-11T08:17:33.785Z,73.20
2022-10-11T08:20:19.830Z,72.73
2022-10-11T08:22:47.883Z,67.57
2022-10-11T08:25:15.937Z,70.50
2022-10-11T08:27:45.325Z,73.10
2022-10-11T08:30:14.438Z,72.50
2022-10-11T08:32:42.469Z,84.73
2022-10-11T08:35:10.562Z,82.50
2022-10-11T08:37:38.726Z,80.27
2022-10-11T08:40:08.065Z,91.00
2022-10-11T08:42:42.234Z,86.23
2022-10-11T08:45:25.618Z,78.30
2022-10-11T08:47:59.030Z,72.30
2022-10-11T08:50:27.043Z,72.67
2022-10-11T08:52:58.389Z,76.70
2022-10-11T08:55:30.039Z,78.03
2022-10-11T08:57:59.545Z,76.67
2022-10-11T09:00:32.500Z,84.97
2022-10-11T09:03:09.328Z,81.27
2022-10-11T09:05:57.533Z,77.57
2022-10-11T09:08:34.666Z,88.07
2022-10-11T09:11:11.001Z,73.80
2022-10-11T09:14:00.794Z,75.60
2022-10-11T09:16:42.568Z,72.70
2022-10-11T09:19:37.550Z,76.60
2022-10-11T09:22:11.643Z,73.60
2022-10-11T09:24:53.474Z,79.73
2022-10-11T09:27:43.699Z,76.00
2022-10-11T09:30:16.162Z,78.03
2022-10-11T09:32:48.214Z,75.17
2022-10-11T09:35:18.502Z,71.57
2022-10-11T09:37:55.268Z,76.70
2022-10-11T09:40:44.451Z,86.87
2022-10-11T09:43:13.012Z,56.30
2022-10-11T09:45:49.157Z,58.77
2022-10-11T09:48:21.977Z,60.83
2022-10-11T09:50:51.483Z,60.07
2022-10-11T09:53:20.000Z,56.40
2022-10-11T09:55:53.807Z,60.77
2022-10-11T09:58:28.894Z,61.80
2022-10-11T10:01:03.921Z,58.10
2022-10-11T10:03:39.160Z,53.80
2022-10-11T10:06:10.281Z,59.43
2022-10-11T10:08:38.789Z,75.90
2022-10-11T10:11:08.399Z,52.70
2022-10-11T10:13:44.134Z,51.77
2022-10-11T10:16:22.356Z,50.33
2022-10-11T10:18:55.152Z,53.60
2022-10-11T10:21:30.112Z,70.87
2022-10-11T10:24:03.094Z,60.77
2022-10-11T10:26:32.107Z,49.10
2022-10-11T10:29:16.205Z,55.10
2022-10-11T10:34:57.643Z,53.63
2022-10-11T10:37:30.313Z,59.57
2022-10-11T10:40:03.644Z,43.93
2022-10-11T10:42:31.676Z,56.40
2022-10-11T10:45:02.344Z,50.83
2022-10-11T10:47:58.544Z,48.23
2022-10-11T10:50:33.636Z,46.27
2022-10-11T10:53:19.078Z,39.80
2022-10-11T10:55:52.717Z,40.43
2022-10-11T10:58:38.308Z,44.20
2022-10-11T11:01:13.192Z,48.87
2022-10-11T11:03:45.894Z,41.80
2022-10-11T11:06:22.948Z,37.73
2022-10-11T11:09:12.832Z,47.80
2022-10-11T11:11:52.122Z,36.10
2022-10-11T11:14:29.845Z,37.37
2022-10-11T11:17:07.106Z,31.57
2022-10-11T11:19:45.927Z,39.53
2022-10-11T11:22:22.827Z,45.97
2022-10-11T11:25:01.086Z,37.67
2022-10-11T11:27:46.729Z,32.70
2022-10-11T11:30:21.377Z,37.23
2022-10-11T11:32:57.757Z,36.53
2022-10-11T11:35:30.253Z,27.03
2022-10-11T11:38:07.719Z,36.20
2022-10-11T11:40:40.430Z,25.47
2022-10-11T11:43:19.273Z,32.83
2022-10-11T11:45:51.493Z,30.27
2022-10-11T11:48:21.600Z,31.77
2022-10-11T11:50:56.208Z,25.53
2022-10-11T11:53:41.944Z,22.00
2022-10-11T11:56:18.212Z,26.90
2022-10-11T11:58:55.177Z,22.53
2022-10-11T12:01:31.485Z,22.47
2022-10-11T12:04:06.040Z,17.63
2022-10-11T12:06:40.308Z,21.90
2022-10-11T12:09:24.063Z,15.00
2022-10-11T12:11:56.305Z,22.20
2022-10-11T12:14:29.471Z,16.83
2022-10-11T12:17:24.718Z,16.27
2022-10-11T12:20:14.540Z,17.97
2022-10-11T12:23:00.237Z,18.43
2022-10-11T12:25:44.571Z,16.90
2022-10-11T12:28:59.389Z,19.40
2022-10-11T12:31:29.501Z,12.47
2022-10-11T12:34:21.631Z,18.93
2022-10-11T12:36:51.538Z,19.13
2022-10-11T12:39:45.637Z,16.97
2022-10-11T12:42:28.165Z,17.03
2022-10-11T12:45:32.154Z,12.80
2022-10-11T12:48:35.964Z,17.70
2022-10-11T12:51:33.703Z,10.67
2022-10-11T12:54:38.840Z,17.23
2022-10-11T12:57:42.561Z,11.93
2022-10-11T13:00:23.690Z,19.80
2022-10-11T13:02:51.752Z,13.07
2022-10-11T13:05:24.190Z,28.20
2022-10-11T13:07:53.378Z,176.40
2022-10-11T13:10:25.319Z,44.77
2022-10-11T13:12:55.035Z,39.10
2022-10-11T13:15:25.284Z,19.37
2022-10-11T13:18:00.764Z,14.53
2022-10-11T13:20:31.490Z,19.27
2022-10-11T13:22:59.919Z,36.23
2022-10-11T13:25:31.550Z,13.10
2022-10-11T13:28:00.312Z,16.47
2022-10-11T13:30:32.606Z,14.33
2022-10-11T13:33:01.600Z,9.30
2022-10-11T13:35:32.703Z,10.53
2022-10-11T13:38:01.309Z,13.27
2022-10-11T13:40:30.547Z,14.03
2022-10-11T13:42:59.284Z,11.60
2022-10-11T13:45:30.592Z,9.10
2022-10-11T13:47:59.073Z,11.20
2022-10-11T13:50:32.270Z,10.50
2022-10-11T13:53:01.819Z,15.27
2022-10-11T13:55:32.802Z,9.27
2022-10-11T13:58:03.033Z,13.20
2022-10-11T14:00:35.985Z,10.13
2022-10-11T14:03:08.707Z,11.17
2022-10-11T14:05:39.679Z,10.23
2022-10-11T14:08:23.645Z,11.37
2022-10-11T14:10:56.693Z,10.40
2022-10-11T14:13:31.078Z,12.97
2022-10-11T14:16:07.046Z,8.90
2022-10-11T14:18:47.699Z,8.13
2022-10-11T14:21:34.573Z,8.73
2022-10-11T14:24:05.937Z,8.93
2022-10-11T14:26:36.803Z,9.33
2022-10-11T14:29:08.978Z,12.77
2022-10-11T14:31:42.036Z,13.07
2022-10-11T14:34:18.474Z,9.50
2022-10-11T14:36:47.018Z,11.03
2022-10-11T14:39:17.858Z,10.93
2022-10-11T14:41:47.297Z,6.70
2022-10-11T14:44:16.704Z,14.43
2022-10-11T14:46:47.237Z,16.30
2022-10-11T14:49:17.056Z,12.53
2022-10-11T14:51:46.670Z,14.00
2022-10-11T14:54:15.857Z,11.23
2022-10-11T14:56:43.940Z,8.67
2022-10-11T14:59:14.919Z,10.10
2022-10-11T15:01:43.386Z,12.73
2022-10-11T15:04:12.812Z,9.30
2022-10-11T15:06:42.053Z,10.20
2022-10-11T15:09:10.461Z,20.97
2022-10-11T15:11:39.090Z,10.47
2022-10-11T15:14:07.707Z,13.93
2022-10-11T15:16:36.566Z,12.40
2022-10-11T15:19:04.802Z,20.80
2022-10-11T15:21:35.297Z,22.23
2022-10-11T15:24:03.383Z,13.37
2022-10-11T15:26:31.521Z,5.73
2022-10-11T15:28:59.600Z,11.70
2022-10-11T15:31:27.788Z,9.97
2022-10-11T15:33:59.381Z,12.97
2022-10-11T15:36:28.644Z,12.97
2022-10-11T15:38:58.279Z,12.00
2022-10-11T15:41:26.754Z,12.40
2022-10-11T15:43:54.853Z,13.17
2022-10-11T15:46:23.754Z,14.87
2022-10-11T15:48:52.653Z,7.80
2022-10-11T15:51:20.673Z,13.60
2022-10-11T15:53:48.871Z,13.80
2022-10-11T15:56:19.633Z,10.53
2022-10-11T15:58:47.776Z,18.43
2022-10-11T16:01:17.817Z,13.30
2022-10-11T16:03:46.485Z,11.77
2022-10-11T16:06:14.953Z,14.30
2022-10-11T16:08:43.051Z,13.30
2022-10-11T16:11:12.657Z,16.23
2022-10-11T16:13:42.112Z,11.87
2022-10-11T16:16:10.989Z,13.27
2022-10-11T16:18:39.205Z,14.07
2022-10-11T16:21:09.989Z,11.10
2022-10-11T16:23:38.885Z,16.20
2022-10-11T16:26:09.091Z,13.30
2022-10-11T16:28:38.009Z,11.00
2022-10-11T16:31:11.649Z,14.97
2022-10-11T16:33:45.706Z,22.10
2022-10-11T16:36:35.887Z,14.23
2022-10-11T16:39:07.656Z,13.63
2022-10-11T16:41:35.650Z,15.63
2022-10-11T16:44:04.050Z,131.83
2022-10-11T16:46:35.091Z,181.77
2022-10-11T16:49:03.534Z,53.87
2022-10-11T16:51:31.738Z,22.43
2022-10-11T16:53:59.735Z,16.87
2022-10-11T16:56:28.141Z,205.83
2022-10-11T16:58:56.849Z,244.37
2022-10-11T17:01:25.761Z,62.13
2022-10-11T17:03:55.705Z,16.80
2022-10-11T17:06:24.320Z,18.20
2022-10-11T17:08:52.461Z,18.53
2022-10-11T17:11:22.214Z,18.03
2022-10-11T17:13:53.239Z,19.47
2022-10-11T17:16:22.255Z,17.50
2022-10-11T17:18:50.343Z,21.57
2022-10-11T17:21:21.258Z,19.00
2022-10-11T17:23:49.392Z,23.70
2022-10-11T17:26:20.324Z,14.30
2022-10-11T17:28:48.513Z,18.53
2022-10-11T17:31:16.655Z,15.10
2022-10-11T17:33:44.864Z,24.53
2022-10-11T17:36:22.508Z,20.87
2022-10-11T17:38:52.475Z,17.10
2022-10-11T17:41:21.391Z,18.00
2022-10-11T17:43:49.858Z,19.07
2022-10-11T17:46:21.407Z,20.70
2022-10-11T17:48:50.040Z,20.43
2022-10-11T17:51:21.235Z,18.73
2022-10-11T17:53:50.859Z,17.50
2022-10-11T17:56:24.038Z,20.47
2022-10-11T17:58:57.227Z,24.67
2022-10-11T18:01:27.926Z,19.20
2022-10-11T18:03:57.596Z,20.53
2022-10-11T18:06:30.101Z,21.17
2022-10-11T18:09:00.817Z,28.67
2022-10-11T18:11:29.120Z,23.40
2022-10-11T18:13:58.536Z,20.10
2022-10-11T18:16:30.526Z,20.83
2022-10-11T18:18:59.260Z,21.63
2022-10-11T18:21:34.265Z,20.07
2022-10-11T18:24:04.858Z,20.90
2022-10-11T18:26:33.074Z,20.40
2022-10-11T18:29:01.220Z,20.03
2022-10-11T18:31:31.653Z,21.93
2022-10-11T18:33:59.723Z,18.63
2022-10-11T18:36:31.152Z,16.83
2022-10-11T18:39:01.715Z,17.33
2022-10-11T18:41:32.235Z,21.23
2022-10-11T18:44:02.343Z,23.77
2022-10-11T18:46:31.074Z,21.03
2022-10-11T18:49:01.666Z,27.93
2022-10-11T18:51:33.828Z,22.87
2022-10-11T18:54:02.925Z,24.50
2022-10-11T18:56:32.281Z,21.83
2022-10-11T18:59:01.129Z,24.43
2022-10-11T19:01:30.976Z,24.70
2022-10-11T19:04:00.534Z,23.33
2022-10-11T19:06:33.645Z,21.77
2022-10-11T19:09:04.650Z,25.30
2022-10-11T19:11:33.606Z,24.87
2022-10-11T19:14:03.410Z,23.30
2022-10-11T19:16:31.806Z,27.47
2022-10-11T19:19:00.100Z,22.00
2022-10-11T19:21:28.524Z,32.00
2022-10-11T19:23:58.108Z,19.57
2022-10-11T19:26:29.178Z,27.23
2022-10-11T19:28:58.911Z,24.77
2022-10-11T19:31:27.467Z,23.90
2022-10-11T19:33:57.186Z,21.40
2022-10-11T19:36:25.773Z,23.27
2022-10-11T19:38:56.692Z,30.40
2022-10-11T19:41:27.505Z,30.20
2022-10-11T19:43:58.079Z,27.67
2022-10-11T19:46:49.902Z,24.80
2022-10-11T19:49:17.774Z,30.57
2022-10-11T19:51:45.860Z,32.40
2022-10-11T19:54:15.298Z,36.50
2022-10-11T19:56:45.118Z,43.70
2022-10-11T19:59:14.440Z,30.93
2022-10-11T20:01:45.497Z,33.93
2022-10-11T20:04:39.657Z,30.67
2022-10-11T20:07:04.339Z,23.73
2022-10-11T20:09:32.368Z,22.73
2022-10-11T20:12:01.759Z,24.10
2022-10-11T20:14:29.752Z,29.70
2022-10-11T20:16:57.819Z,22.47
2022-10-11T20:19:30.594Z,18.93
2022-10-11T20:22:00.080Z,22.43
2022-10-11T20:24:32.443Z,25.90
2022-10-11T20:27:03.417Z,22.80
2022-10-11T20:29:31.519Z,37.87
2022-10-11T20:32:00.078Z,16.00
2022-10-11T20:34:28.679Z,17.73
2022-10-11T20:36:56.736Z,26.60
2022-10-11T20:39:25.406Z,13.60
2022-10-11T20:41:53.533Z,15.07
2022-10-11T20:44:23.047Z,23.40
2022-10-11T20:46:51.207Z,15.90
2022-10-11T20:49:20.613Z,22.07
2022-10-11T20:51:49.088Z,22.93
2022-10-11T20:54:17.721Z,21.77
2022-10-11T20:56:45.882Z,12.03
2022-10-11T20:59:13.885Z,19.70
2022-10-11T21:01:43.580Z,51.63
2022-10-11T21:04:18.591Z,46.27
2022-10-11T21:06:47.466Z,20.00
2022-10-11T21:09:16.836Z,16.97
2022-10-11T21:11:45.240Z,18.57
2022-10-11T21:14:13.398Z,20.93
2022-10-11T21:16:43.042Z,25.77
2022-10-11T21:19:16.439Z,22.50
2022-10-11T21:21:50.922Z,24.43
2022-10-11T21:24:21.666Z,21.73
2022-10-11T21:26:49.664Z,21.70
2022-10-11T21:29:18.237Z,23.87
2022-10-11T21:31:47.619Z,18.53
2022-10-11T21:34:15.855Z,23.80
2022-10-11T21:36:44.246Z,20.20
2022-10-11T21:39:12.269Z,18.87
2022-10-11T21:41:42.057Z,18.93
2022-10-11T21:44:10.094Z,19.17
2022-10-11T21:47:07.992Z,17.40
2022-10-11T21:49:27.434Z,34.83
2022-10-11T21:51:55.484Z,63.67
2022-10-11T21:54:23.471Z,22.73
2022-10-11T21:56:51.427Z,19.30
2022-10-11T21:59:19.439Z,19.57
2022-10-11T22:01:47.520Z,23.50
2022-10-11T22:04:15.641Z,21.13
2022-10-11T22:06:45.033Z,29.23
2022-10-11T22:09:13.093Z,19.23
2022-10-11T22:11:41.117Z,19.33
2022-10-11T22:14:09.501Z,23.70
2022-10-11T22:16:37.676Z,25.60
2022-10-11T22:19:05.856Z,22.03
2022-10-11T22:21:33.912Z,17.00
2022-10-11T22:24:03.248Z,16.03
2022-10-11T22:26:32.145Z,18.50
2022-10-11T22:29:01.150Z,18.20
2022-10-11T22:31:29.954Z,18.90
2022-10-11T22:33:59.560Z,20.73
2022-10-11T22:36:28.246Z,16.80
2022-10-11T22:38:56.379Z,18.63
2022-10-11T22:41:25.841Z,15.40
2022-10-11T22:43:53.886Z,15.83
2022-10-11T22:46:21.878Z,14.93
2022-10-11T22:48:49.950Z,20.57
2022-10-11T22:51:17.950Z,23.60
2022-10-11T22:53:46.339Z,17.67
2022-10-11T22:56:14.375Z,26.70
2022-10-11T22:58:44.005Z,21.27
2022-10-11T23:01:14.040Z,20.60
2022-10-11T23:03:42.355Z,14.03
2022-10-11T23:06:10.691Z,17.10
2022-10-11T23:08:38.648Z,13.50
2022-10-11T23:11:07.713Z,14.63
2022-10-11T23:13:35.902Z,15.90
2022-10-11T23:16:09.140Z,15.00
2022-10-11T23:18:37.809Z,16.87
2022-10-11T23:21:06.999Z,12.30
2022-10-11T23:23:35.605Z,16.60
2022-10-11T23:26:05.450Z,13.50
2022-10-11T23:28:33.588Z,12.40
2022-10-11T23:31:01.793Z,15.23
2022-10-11T23:33:31.104Z,19.93
2022-10-11T23:35:59.119Z,18.10
2022-10-11T23:38:27.170Z,13.97
2022-10-11T23:40:55.187Z,14.10
2022-10-11T23:43:23.363Z,13.07
2022-10-11T23:45:51.345Z,13.97
2022-10-11T23:48:19.306Z,14.50
2022-10-11T23:50:48.726Z,15.03
2022-10-11T23:53:16.757Z,12.47
2022-10-11T23:55:44.833Z,16.30
2022-10-11T23:58:12.787Z,16.80
